Time;durP1;ratioP1;P1;durP2;ratioP2;P2;SDS_P1;SDS_P2;PMS_P1;PMS_P2;Temp;Humidity;BMP_temperature;BMP_pressure;BME280_temperature;BME280_humidity;BME280_pressure;Samples;Min_cycle;Max_cycle;Signal;HPM_P1;HPM_P2
2023/07/17 00:00:32;;;;;;;;;;;;;;;17.33;69.93;101418.03;5024556;28;1677;-80
2023/07/17 00:02:58;;;;;;;;;;;;;;;17.33;69.81;101427.72;5033515;28;1243;-81
2023/07/17 00:05:23;;;;;;;;;;;;;;;17.30;70.45;101436.69;5047278;28;1404;-81
2023/07/17 00:07:48;;;;;;;;;;;;;;;17.21;70.60;101427.16;5052468;28;1902;-80
2023/07/17 00:10:14;;;;;;;;;;;;;;;17.23;70.83;101427.81;5043770;28;1213;-80
2023/07/17 00:12:39;;;;;;;;;;;;;;;17.21;70.57;101435.00;5032537;28;1344;-81
2023/07/17 00:15:05;;;;;;;;;;;;;;;17.18;70.80;101433.50;5053299;28;966;-80
2023/07/17 00:17:31;;;;;;;;;;;;;;;17.12;71.30;101435.91;5032188;28;1459;-80
2023/07/17 00:19:56;;;;;;;;;;;;;;;17.07;71.34;101443.41;5032291;28;1331;-80
2023/07/17 00:22:22;;;;;;;;;;;;;;;17.02;71.78;101443.88;5037963;28;1399;-80
2023/07/17 00:24:49;;;;;;;;;;;;;;;16.99;71.98;101437.13;5034815;28;1175;-79
2023/07/17 00:27:14;;;;;;;;;;;;;;;16.98;72.32;101451.22;5044348;28;1973;-80
2023/07/17 00:29:40;;;;;;;;;;;;;;;16.96;72.45;101437.44;5029341;28;1457;-80
2023/07/17 00:32:06;;;;;;;;;;;;;;;16.94;72.58;101444.63;5030224;28;1442;-79
2023/07/17 00:34:31;;;;;;;;;;;;;;;16.91;72.67;101447.53;5030102;28;1215;-80
2023/07/17 00:36:56;;;;;;;;;;;;;;;16.89;72.93;101444.25;5041785;28;1230;-81
2023/07/17 00:39:23;;;;;;;;;;;;;;;16.79;73.24;101443.50;5032115;28;1261;-80
2023/07/17 00:41:49;;;;;;;;;;;;;;;16.81;73.21;101444.19;5046618;28;1587;-80
2023/07/17 00:44:14;;;;;;;;;;;;;;;16.79;73.17;101443.50;5043790;28;1562;-80
2023/07/17 00:46:39;;;;;;;;;;;;;;;16.78;73.36;101446.28;5039963;28;1953;-80
2023/07/17 00:49:06;;;;;;;;;;;;;;;16.76;73.89;101443.81;5042684;28;1295;-80
2023/07/17 00:51:32;;;;;;;;;;;;;;;16.78;73.73;101444.50;5038191;28;1254;-80
2023/07/17 00:53:58;;;;;;;;;;;;;;;16.79;73.73;101435.66;5027838;28;1627;-80
2023/07/17 00:56:24;;;;;;;;;;;;;;;16.81;74.06;101448.63;5023437;28;1197;-79
2023/07/17 00:58:49;;;;;;;;;;;;;;;16.82;74.12;101451.09;5045650;28;1415;-80
2023/07/17 01:01:14;;;;;;;;;;;;;;;16.83;74.32;101442.25;5046263;28;1806;-80
2023/07/17 01:03:40;;;;;;;;;;;;;;;16.83;74.47;101442.25;5050291;28;1260;-80
2023/07/17 01:06:05;;;;;;;;;;;;;;;16.85;74.07;101435.03;5038032;28;1340;-80
2023/07/17 01:08:31;;;;;;;;;;;;;;;16.86;74.23;101446.34;5047587;28;1915;-80
2023/07/17 01:10:56;;;;;;;;;;;;;;;16.85;74.49;101457.81;5036589;28;1400;-80
2023/07/17 01:13:21;;;;;;;;;;;;;;;16.83;73.83;101452.72;5055356;28;1229;-79
2023/07/17 01:15:47;;;;;;;;;;;;;;;16.81;74.54;101454.69;5033180;28;1219;-80
2023/07/17 01:18:13;;;;;;;;;;;;;;;16.77;74.33;101469.03;5059038;28;1100;-81
2023/07/17 01:20:38;;;;;;;;;;;;;;;16.73;74.79;101457.22;5038278;28;1442;-80
2023/07/17 01:23:04;;;;;;;;;;;;;;;16.69;74.33;101455.84;5053242;28;1311;-80
2023/07/17 01:25:29;;;;;;;;;;;;;;;16.65;74.93;101462.34;5042935;28;1261;-79
2023/07/17 01:27:55;;;;;;;;;;;;;;;16.58;74.96;101463.94;5035447;28;1898;-81
2023/07/17 01:30:20;;;;;;;;;;;;;;;16.53;75.58;101466.16;5033888;28;1378;-80
2023/07/17 01:32:45;;;;;;;;;;;;;;;16.46;75.22;101461.53;5029236;28;1286;-82
2023/07/17 01:35:11;;;;;;;;;;;;;;;16.45;75.36;101465.09;5047964;28;1236;-80
2023/07/17 01:37:36;;;;;;;;;;;;;;;16.41;75.02;101469.00;5031008;28;1342;-80
2023/07/17 01:40:03;;;;;;;;;;;;;;;16.36;75.64;101471.22;5029050;28;1230;-80
2023/07/17 01:42:28;;;;;;;;;;;;;;;16.35;76.25;101471.38;5046697;28;1185;-80
2023/07/17 01:44:53;;;;;;;;;;;;;;;16.35;75.86;101469.59;5030866;28;1591;-81
2023/07/17 01:47:18;;;;;;;;;;;;;;;16.33;76.33;101471.50;5028926;28;1984;-80
2023/07/17 01:49:43;;;;;;;;;;;;;;;16.35;75.57;101468.75;5044880;28;1243;-80
2023/07/17 01:55:11;;;;;;;;;;;;;;;16.24;76.29;101477.63;5057208;28;891;-80
2023/07/17 01:57:36;;;;;;;;;;;;;;;16.17;76.53;101466.94;5144131;22;7264;-76
2023/07/17 02:00:02;;;;;;;;;;;;;;;16.13;76.64;101467.38;5037492;28;1254;-75
2023/07/17 02:02:27;;;;;;;;;;;;;;;16.12;76.44;101468.34;5035263;28;944;-76
2023/07/17 02:04:53;;;;;;;;;;;;;;;16.12;76.46;101468.34;5033760;28;1194;-75
2023/07/17 02:07:18;;;;;;;;;;;;;;;16.11;76.54;101469.28;5028691;28;1977;-77
2023/07/17 02:09:43;;;;;;;;;;;;;;;16.09;77.18;101463.38;5024757;28;1085;-76
2023/07/17 02:12:08;;;;;;;;;;;;;;;16.09;77.13;101468.63;5029848;28;1182;-74
2023/07/17 02:14:34;;;;;;;;;;;;;;;16.05;76.98;101464.63;5029344;28;1527;-73
2023/07/17 02:16:59;;;;;;;;;;;;;;;16.02;77.37;101457.91;5027103;28;1308;-74
2023/07/17 02:19:24;;;;;;;;;;;;;;;15.97;77.33;101464.53;5025894;28;1219;-73
2023/07/17 02:21:49;;;;;;;;;;;;;;;15.95;77.37;101466.50;5026514;28;1398;-73
2023/07/17 02:24:15;;;;;;;;;;;;;;;15.91;77.32;101464.16;5025194;28;1214;-74
2023/07/17 02:26:40;;;;;;;;;;;;;;;15.88;77.36;101467.03;5032787;28;1891;-75
2023/07/17 02:29:05;;;;;;;;;;;;;;;15.89;77.80;101479.19;5023803;28;1608;-74
2023/07/17 02:31:31;;;;;;;;;;;;;;;15.90;77.33;101483.44;5023907;28;1699;-74
2023/07/17 02:33:56;;;;;;;;;;;;;;;15.89;77.74;101483.59;5026616;28;1531;-74
2023/07/17 02:36:21;;;;;;;;;;;;;;;15.86;78.00;101479.44;5032804;28;1324;-73
2023/07/17 02:38:46;;;;;;;;;;;;;;;15.85;77.55;101477.81;5031537;28;1025;-73
2023/07/17 02:41:12;;;;;;;;;;;;;;;15.84;78.14;101481.41;5007554;28;1329;-73
2023/07/17 02:43:37;;;;;;;;;;;;;;;15.83;77.66;101489.38;5032568;28;1265;-73
2023/07/17 02:46:03;;;;;;;;;;;;;;;15.78;78.09;101484.59;5029394;23;3258;-77
2023/07/17 02:48:28;;;;;;;;;;;;;;;15.72;78.40;101493.00;5031075;28;1967;-76
2023/07/17 02:50:53;;;;;;;;;;;;;;;15.67;78.24;101489.97;5044612;28;1209;-76
2023/07/17 02:53:18;;;;;;;;;;;;;;;15.63;78.27;101493.84;5034551;28;1276;-79
2023/07/17 02:55:44;;;;;;;;;;;;;;;15.59;78.20;101493.25;5014623;28;1371;-76
2023/07/17 02:58:09;;;;;;;;;;;;;;;15.56;78.74;101492.72;5028192;28;1312;-77
2023/07/17 03:00:34;;;;;;;;;;;;;;;15.53;78.80;101491.22;5026709;28;1277;-77
2023/07/17 03:03:00;;;;;;;;;;;;;;;15.54;78.98;101495.50;5030549;28;1198;-76
2023/07/17 03:05:25;;;;;;;;;;;;;;;15.51;79.04;101510.63;5027916;28;1417;-77
2023/07/17 03:07:50;;;;;;;;;;;;;;;15.49;79.05;101496.88;5045872;28;1947;-76
2023/07/17 03:10:16;;;;;;;;;;;;;;;15.45;78.50;101511.19;5034962;28;1292;-77
2023/07/17 03:12:41;;;;;;;;;;;;;;;15.41;78.96;101506.22;5026876;28;1226;-77
2023/07/17 03:15:07;;;;;;;;;;;;;;;15.39;79.34;101508.16;5032982;28;1297;-76
2023/07/17 03:17:32;;;;;;;;;;;;;;;15.37;79.74;101510.09;5032192;28;1245;-77
2023/07/17 03:19:58;;;;;;;;;;;;;;;15.31;79.54;101513.28;5033951;28;1253;-76
2023/07/17 03:22:23;;;;;;;;;;;;;;;15.26;79.96;101509.44;5031446;28;1320;-76
2023/07/17 03:24:48;;;;;;;;;;;;;;;15.24;79.40;101509.56;5031024;28;1249;-79
2023/07/17 03:27:13;;;;;;;;;;;;;;;15.23;79.64;101507.91;5028901;28;1867;-79
2023/07/17 03:29:39;;;;;;;;;;;;;;;15.18;79.62;101510.09;5026008;28;1269;-77
2023/07/17 03:32:04;;;;;;;;;;;;;;;15.15;79.84;101510.41;5033895;28;1094;-77
2023/07/17 03:34:29;;;;;;;;;;;;;;;15.12;80.00;101521.13;5036080;28;1154;-78
2023/07/17 03:36:55;;;;;;;;;;;;;;;15.08;80.23;101515.34;5012676;28;1231;-78
2023/07/17 03:39:20;;;;;;;;;;;;;;;15.07;80.48;101518.09;5033998;28;1436;-76
2023/07/17 03:41:45;;;;;;;;;;;;;;;15.10;80.45;101507.38;5034196;28;1268;-77
2023/07/17 03:44:12;;;;;;;;;;;;;;;15.06;80.79;101508.59;5033850;28;1204;-77
2023/07/17 03:46:37;;;;;;;;;;;;;;;15.01;80.60;101508.19;5036647;28;1899;-77
2023/07/17 03:49:03;;;;;;;;;;;;;;;14.97;81.15;101523.31;5035175;28;2117;-77
2023/07/17 03:51:28;;;;;;;;;;;;;;;14.90;81.70;101516.16;5013328;28;1515;-77
2023/07/17 03:53:53;;;;;;;;;;;;;;;14.83;81.58;101519.31;5028306;28;1209;-77
2023/07/17 03:56:18;;;;;;;;;;;;;;;14.81;81.74;101523.84;5034795;28;1330;-77
2023/07/17 03:58:45;;;;;;;;;;;;;;;14.79;81.38;101520.53;5010099;28;1251;-79
2023/07/17 04:01:11;;;;;;;;;;;;;;;14.77;82.01;101525.06;5036348;28;1240;-78
2023/07/17 04:03:36;;;;;;;;;;;;;;;14.78;82.09;101518.88;5025679;28;1055;-77
2023/07/17 04:06:01;;;;;;;;;;;;;;;14.76;81.81;101517.38;5036458;28;1439;-77
2023/07/17 04:08:26;;;;;;;;;;;;;;;14.74;82.08;101527.97;5010130;28;1899;-77
2023/07/17 04:10:51;;;;;;;;;;;;;;;14.73;82.51;101526.28;5027514;28;1376;-77
2023/07/17 04:13:17;;;;;;;;;;;;;;;14.69;82.39;101534.56;5025162;28;1229;-77
2023/07/17 04:15:43;;;;;;;;;;;;;;;14.68;81.99;101525.91;5011052;28;1331;-78
2023/07/17 04:18:08;;;;;;;;;;;;;;;14.65;82.86;101531.38;5021673;28;2160;-77
2023/07/17 04:20:36;;;;;;;;;;;;;;;14.66;82.72;101525.19;5006737;28;1387;-80
2023/07/17 04:23:01;;;;;;;;;;;;;;;14.66;82.56;101530.41;5024795;28;1539;-78
2023/07/17 04:25:26;;;;;;;;;;;;;;;14.65;82.66;101539.22;5046928;28;1291;-77
2023/07/17 04:27:52;;;;;;;;;;;;;;;14.63;83.12;101546.34;5025579;28;1955;-77
2023/07/17 04:30:17;;;;;;;;;;;;;;;14.62;82.80;101544.69;5030526;28;1182;-77
2023/07/17 04:32:42;;;;;;;;;;;;;;;14.63;83.02;101546.34;5008254;28;1386;-77
2023/07/17 04:35:08;;;;;;;;;;;;;;;14.64;83.07;101542.78;5032845;28;1066;-77
2023/07/17 04:37:33;;;;;;;;;;;;;;;14.66;82.55;101540.84;5028868;28;1189;-78
2023/07/17 04:39:58;;;;;;;;;;;;;;;14.64;82.90;101542.78;5005677;28;1487;-77
2023/07/17 04:42:23;;;;;;;;;;;;;;;14.63;82.89;101546.34;5028870;28;1304;-77
2023/07/17 04:44:48;;;;;;;;;;;;;;;14.60;82.88;101552.66;5026565;28;1633;-78
2023/07/17 04:47:14;;;;;;;;;;;;;;;14.61;83.27;101549.09;5014997;28;1972;-77
2023/07/17 04:49:39;;;;;;;;;;;;;;;14.60;83.42;101552.66;5013710;28;1077;-77
2023/07/17 04:52:04;;;;;;;;;;;;;;;14.61;83.02;101548.25;5012605;28;1395;-77
2023/07/17 04:54:30;;;;;;;;;;;;;;;14.58;83.40;101565.03;5010070;28;1540;-77
2023/07/17 04:56:55;;;;;;;;;;;;;;;14.60;83.53;101562.28;5013987;28;1309;-77
2023/07/17 04:59:20;;;;;;;;;;;;;;;14.63;83.41;101554.19;5006619;28;1210;-77
2023/07/17 05:01:45;;;;;;;;;;;;;;;14.65;83.37;101567.94;5011935;28;1132;-78
2023/07/17 05:04:11;;;;;;;;;;;;;;;14.68;83.61;101565.06;5005321;28;1258;-77
2023/07/17 05:06:36;;;;;;;;;;;;;;;14.71;83.74;101567.41;5008337;28;1977;-78
2023/07/17 05:09:02;;;;;;;;;;;;;;;14.74;83.26;101569.75;5006234;28;1299;-77
2023/07/17 05:11:27;;;;;;;;;;;;;;;14.76;83.11;101572.22;5008784;28;1223;-77
2023/07/17 05:13:52;;;;;;;;;;;;;;;14.77;83.59;101574.69;5007483;28;1388;-79
2023/07/17 05:16:17;;;;;;;;;;;;;;;14.79;83.09;101575.38;5012231;28;1256;-77
2023/07/17 05:18:43;;;;;;;;;;;;;;;14.81;83.21;101580.47;5008279;28;1410;-77
2023/07/17 05:21:08;;;;;;;;;;;;;;;14.85;82.94;101577.47;5011927;28;1237;-77
2023/07/17 05:23:33;;;;;;;;;;;;;;;14.87;82.96;101574.72;5012555;28;1628;-78
2023/07/17 05:25:59;;;;;;;;;;;;;;;14.91;82.98;101580.47;5010788;28;1046;-78
2023/07/17 05:28:37;;;;;;;;;;;;;;;14.94;82.89;101575.00;4994283;28;1958;-77
2023/07/17 05:31:02;;;;;;;;;;;;;;;14.97;82.78;101582.59;5002660;28;1406;-78
2023/07/17 05:33:27;;;;;;;;;;;;;;;15.01;83.13;101576.94;5007660;28;1234;-77
2023/07/17 05:35:53;;;;;;;;;;;;;;;15.06;82.64;101584.38;5006639;28;1343;-78
2023/07/17 05:38:18;;;;;;;;;;;;;;;15.08;82.81;101592.88;5006291;28;1740;-75
2023/07/17 05:40:44;;;;;;;;;;;;;;;15.13;82.64;101593.31;5010321;28;1407;-79
2023/07/17 05:43:09;;;;;;;;;;;;;;;15.17;82.36;101592.06;5007151;28;1341;-78
2023/07/17 05:45:35;;;;;;;;;;;;;;;15.20;82.35;101591.81;4995241;28;1388;-77
2023/07/17 05:48:00;;;;;;;;;;;;;;;15.25;81.88;101597.44;5008469;28;2383;-79
2023/07/17 05:50:25;;;;;;;;;;;;;;;15.28;82.49;101599.78;5013190;28;1317;-77
2023/07/17 05:52:51;;;;;;;;;;;;;;;15.32;82.34;101595.94;5022969;28;1268;-78
2023/07/17 05:55:16;;;;;;;;;;;;;;;15.34;81.87;101609.69;5011363;28;1479;-77
2023/07/17 05:57:41;;;;;;;;;;;;;;;15.39;81.81;101607.50;5009330;28;1203;-77
2023/07/17 06:00:10;;;;;;;;;;;;;;;15.45;81.68;101610.53;5008994;28;1226;-77
2023/07/17 06:02:35;;;;;;;;;;;;;;;15.51;82.03;101612.59;5003203;28;2059;-78
2023/07/17 06:05:00;;;;;;;;;;;;;;;15.53;81.62;101615.88;5005057;28;1068;-78
2023/07/17 06:07:25;;;;;;;;;;;;;;;15.59;81.24;101617.94;4991561;28;1906;-78
2023/07/17 06:09:50;;;;;;;;;;;;;;;15.61;81.68;101622.09;5007227;28;1537;-79
2023/07/17 06:12:16;;;;;;;;;;;;;;;15.67;81.38;101628.59;5010005;28;1216;-78
2023/07/17 06:14:41;;;;;;;;;;;;;;;15.71;81.45;101622.09;5006063;28;1348;-78
2023/07/17 06:17:07;;;;;;;;;;;;;;;15.78;81.62;101628.44;5007825;28;1106;-77
2023/07/17 06:19:32;;;;;;;;;;;;;;;15.84;81.60;101624.44;5004786;28;1190;-79
2023/07/17 06:21:57;;;;;;;;;;;;;;;15.90;80.96;101627.31;5006202;28;1162;-80
2023/07/17 06:24:22;;;;;;;;;;;;;;;15.91;81.44;101623.72;5015029;28;1416;-78
2023/07/17 06:26:48;;;;;;;;;;;;;;;15.99;81.44;101628.25;5015748;28;1949;-79
2023/07/17 06:29:13;;;;;;;;;;;;;;;16.02;80.88;101637.63;5015992;28;1213;-78
2023/07/17 06:31:39;;;;;;;;;;;;;;;16.06;80.99;101639.00;4992674;28;1330;-78
2023/07/17 06:34:05;;;;;;;;;;;;;;;16.12;80.92;101641.06;5013740;28;1241;-78
2023/07/17 06:36:30;;;;;;;;;;;;;;;16.16;80.66;101642.41;5019228;28;1067;-77
2023/07/17 06:38:55;;;;;;;;;;;;;;;16.28;80.59;101641.25;5005512;28;1237;-77
2023/07/17 06:41:20;;;;;;;;;;;;;;;16.32;80.29;101644.44;5025135;28;1624;-78
2023/07/17 06:43:46;;;;;;;;;;;;;;;16.40;80.05;101652.38;5006586;28;1661;-78
2023/07/17 06:46:11;;;;;;;;;;;;;;;16.55;79.95;101647.53;5005242;28;1166;-78
2023/07/17 06:48:36;;;;;;;;;;;;;;;16.46;79.64;101655.28;5009493;28;1898;-78
2023/07/17 06:51:04;;;;;;;;;;;;;;;16.48;79.21;101656.94;5027621;28;1127;-78
2023/07/17 06:53:29;;;;;;;;;;;;;;;16.46;79.55;101665.75;5027547;28;1161;-78
2023/07/17 06:55:59;;;;;;;;;;;;;;;16.48;79.80;101663.00;5005489;28;1236;-78
2023/07/17 06:58:24;;;;;;;;;;;;;;;16.57;79.25;101663.91;5036351;28;1475;-78
2023/07/17 07:00:56;;;;;;;;;;;;;;;16.64;79.70;101662.38;5028685;28;1185;-77
2023/07/17 07:03:22;;;;;;;;;;;;;;;16.70;79.29;101669.66;5039793;28;1381;-78
2023/07/17 07:05:55;;;;;;;;;;;;;;;16.70;78.89;101667.91;5007910;28;1394;-78
2023/07/17 07:08:20;;;;;;;;;;;;;;;16.78;79.27;101669.78;5025529;28;1893;-80
2023/07/17 07:10:45;;;;;;;;;;;;;;;16.84;79.10;101673.63;5029602;28;1279;-77
2023/07/17 07:13:10;;;;;;;;;;;;;;;16.91;78.62;101680.75;5017852;28;1277;-78
2023/07/17 07:15:36;;;;;;;;;;;;;;;16.99;78.52;101683.47;5029365;28;1491;-77
2023/07/17 07:18:01;;;;;;;;;;;;;;;17.06;78.37;101677.66;5027004;28;1227;-78
2023/07/17 07:20:26;;;;;;;;;;;;;;;17.18;77.95;101681.72;5023908;28;1428;-78
2023/07/17 07:22:51;;;;;;;;;;;;;;;17.22;77.73;101678.66;5028914;28;1230;-77
2023/07/17 07:25:17;;;;;;;;;;;;;;;17.28;77.51;101682.50;5031695;28;1228;-78
2023/07/17 07:27:42;;;;;;;;;;;;;;;17.35;77.13;101683.53;5009412;28;1898;-77
2023/07/17 07:30:07;;;;;;;;;;;;;;;17.44;77.13;101687.09;5044377;28;1300;-80
2023/07/17 07:32:32;;;;;;;;;;;;;;;17.53;76.66;101692.25;5034545;28;1514;-78
2023/07/17 07:34:58;;;;;;;;;;;;;;;17.61;76.25;101693.31;5017330;28;1306;-78
2023/07/17 07:37:23;;;;;;;;;;;;;;;17.68;76.30;101699.59;5011689;28;1365;-77
2023/07/17 07:39:48;;;;;;;;;;;;;;;17.74;75.89;101704.28;5029283;28;1269;-78
2023/07/17 07:42:13;;;;;;;;;;;;;;;17.70;75.45;101700.25;5009856;28;1327;-78
2023/07/17 07:44:38;;;;;;;;;;;;;;;17.71;75.33;101710.59;5030662;28;1166;-77
2023/07/17 07:47:05;;;;;;;;;;;;;;;17.68;75.21;101716.16;5011505;28;1902;-77
2023/07/17 07:49:30;;;;;;;;;;;;;;;17.66;75.04;101714.66;5029496;28;1319;-78
2023/07/17 07:51:55;;;;;;;;;;;;;;;17.66;75.33;101717.28;5031035;28;1390;-78
2023/07/17 07:54:20;;;;;;;;;;;;;;;17.77;74.83;101711.84;5025917;28;1464;-78
2023/07/17 07:56:45;;;;;;;;;;;;;;;17.84;74.82;101706.84;5010191;28;1270;-79
2023/07/17 07:59:11;;;;;;;;;;;;;;;17.92;74.34;101712.97;5028775;28;1241;-78
2023/07/17 08:01:36;;;;;;;;;;;;;;;17.98;74.38;101712.34;5026100;28;1263;-80
2023/07/17 08:04:02;;;;;;;;;;;;;;;18.09;73.87;101718.34;5025943;28;1140;-77
2023/07/17 08:06:27;;;;;;;;;;;;;;;18.23;73.19;101718.59;5028119;28;1282;-78
2023/07/17 08:08:52;;;;;;;;;;;;;;;18.15;72.42;101717.72;5026381;28;1914;-79
2023/07/17 08:11:20;;;;;;;;;;;;;;;18.09;72.59;101726.22;5027007;28;1166;-79
2023/07/17 08:13:45;;;;;;;;;;;;;;;18.12;72.81;101732.00;5021455;28;1233;-79
2023/07/17 08:16:10;;;;;;;;;;;;;;;18.24;72.50;101727.34;5024059;28;1217;-79
2023/07/17 08:18:35;;;;;;;;;;;;;;;18.34;72.62;101724.59;5026240;28;1165;-78
2023/07/17 08:21:00;;;;;;;;;;;;;;;18.42;72.43;101725.47;5044283;28;1304;-79
2023/07/17 08:23:26;;;;;;;;;;;;;;;18.54;71.94;101729.50;5026853;28;1790;-79
2023/07/17 08:25:51;;;;;;;;;;;;;;;18.68;71.92;101728.13;5033172;28;1271;-79
2023/07/17 08:28:16;;;;;;;;;;;;;;;18.90;71.62;101731.19;5011212;28;1949;-78
2023/07/17 08:30:42;;;;;;;;;;;;;;;18.95;71.00;101721.84;5039397;28;1313;-78
2023/07/17 08:33:07;;;;;;;;;;;;;;;19.08;71.05;101731.91;5021754;28;1491;-78
2023/07/17 08:35:47;;;;;;;;;;;;;;;19.16;70.38;101731.97;5025944;28;1222;-78
2023/07/17 08:38:13;;;;;;;;;;;;;;;19.22;70.18;101727.88;5022260;28;2015;-80
2023/07/17 08:40:39;;;;;;;;;;;;;;;19.27;69.46;101736.94;5034984;28;1416;-80
2023/07/17 08:43:05;;;;;;;;;;;;;;;19.37;68.40;101736.78;5029267;28;1169;-80
2023/07/17 08:45:31;;;;;;;;;;;;;;;19.50;68.59;101731.88;5024929;28;1200;-79
2023/07/17 08:47:56;;;;;;;;;;;;;;;19.52;68.15;101731.72;5008532;28;1883;-79
2023/07/17 08:50:22;;;;;;;;;;;;;;;19.52;68.18;101735.16;5012625;28;1178;-79
2023/07/17 08:52:47;;;;;;;;;;;;;;;19.52;66.81;101737.81;5005719;28;1325;-80
2023/07/17 08:55:13;;;;;;;;;;;;;;;19.53;67.52;101747.34;4983475;28;1247;-79
2023/07/17 08:57:38;;;;;;;;;;;;;;;19.51;67.56;101744.06;5007693;28;1205;-80
2023/07/17 09:00:04;;;;;;;;;;;;;;;19.49;66.53;101739.91;5008736;28;1195;-80
2023/07/17 09:02:30;;;;;;;;;;;;;;;19.54;67.11;101741.09;5009247;28;1327;-80
2023/07/17 09:04:55;;;;;;;;;;;;;;;19.77;65.82;101732.59;5002281;28;2030;-79
2023/07/17 09:07:20;;;;;;;;;;;;;;;19.73;65.59;101731.31;5001235;28;1894;-79
2023/07/17 09:09:45;;;;;;;;;;;;;;;19.62;65.16;101729.81;4992668;28;1532;-79
2023/07/17 09:12:11;;;;;;;;;;;;;;;19.54;65.10;101738.44;5002836;28;1626;-80
2023/07/17 09:14:37;;;;;;;;;;;;;;;19.45;65.32;101749.97;5004471;28;1669;-79
2023/07/17 09:17:04;;;;;;;;;;;;;;;19.48;65.58;101741.72;5000774;28;1258;-79
2023/07/17 09:19:32;;;;;;;;;;;;;;;19.67;65.01;101738.03;5006063;28;1288;-79
2023/07/17 09:21:58;;;;;;;;;;;;;;;19.74;65.08;101740.84;4998751;28;1347;-79
2023/07/17 09:24:25;;;;;;;;;;;;;;;19.71;64.88;101741.97;5000931;28;2091;-79
2023/07/17 09:26:55;;;;;;;;;;;;;;;19.67;64.66;101743.31;4990021;28;1947;-79
2023/07/17 09:29:22;;;;;;;;;;;;;;;19.63;64.51;101740.16;5010284;28;1340;-78
2023/07/17 09:31:47;;;;;;;;;;;;;;;19.62;64.38;101741.16;5006690;28;1271;-80
2023/07/17 09:34:13;;;;;;;;;;;;;;;19.75;64.58;101745.09;5011963;28;1321;-80
2023/07/17 09:36:38;;;;;;;;;;;;;;;19.78;64.30;101739.50;5010321;28;1544;-79
2023/07/17 09:39:05;;;;;;;;;;;;;;;19.71;64.32;101749.03;4997094;28;1486;-80
2023/07/17 09:41:31;;;;;;;;;;;;;;;19.65;64.30;101745.25;4993585;28;1310;-81
2023/07/17 09:44:16;;;;;;;;;;;;;;;19.62;64.54;101751.69;5010498;28;1438;-80
2023/07/17 09:46:41;;;;;;;;;;;;;;;19.58;64.41;101750.34;5004337;28;1168;-80
2023/07/17 09:49:07;;;;;;;;;;;;;;;19.54;64.56;101743.72;5011340;28;1902;-80
2023/07/17 09:51:32;;;;;;;;;;;;;;;19.50;64.42;101750.31;5011770;28;1139;-80
2023/07/17 09:54:00;;;;;;;;;;;;;;;19.45;64.50;101752.59;5017558;28;1245;-81
2023/07/17 09:56:29;;;;;;;;;;;;;;;19.42;64.59;101755.53;5019469;28;1363;-80
2023/07/17 09:58:55;;;;;;;;;;;;;;;19.55;64.67;101765.59;5014453;28;1322;-80
2023/07/17 10:01:23;;;;;;;;;;;;;;;19.70;64.97;101752.66;5008778;28;1322;-80
2023/07/17 10:03:48;;;;;;;;;;;;;;;19.83;64.49;101745.09;5021720;28;1267;-80
2023/07/17 10:06:15;;;;;;;;;;;;;;;19.96;63.39;101747.28;5012952;28;1450;-80
2023/07/17 10:08:42;;;;;;;;;;;;;;;19.94;63.40;101743.97;5032037;28;2226;-79
2023/07/17 10:11:08;;;;;;;;;;;;;;;19.92;63.02;101752.03;5031395;28;1544;-80
2023/07/17 10:13:33;;;;;;;;;;;;;;;19.93;62.43;101753.69;5031194;28;1281;-80
2023/07/17 10:15:58;;;;;;;;;;;;;;;19.87;60.99;101770.13;5026769;28;1320;-80
2023/07/17 10:18:24;;;;;;;;;;;;;;;19.83;62.26;101758.28;5032080;28;1126;-80
2023/07/17 10:20:51;;;;;;;;;;;;;;;19.76;62.12;101762.53;5007808;28;1326;-80
2023/07/17 10:23:26;;;;;;;;;;;;;;;19.70;61.50;101757.94;5008432;28;1279;-80
2023/07/17 10:25:52;;;;;;;;;;;;;;;19.68;61.61;101765.19;5010636;28;1443;-81
2023/07/17 10:28:34;;;;;;;;;;;;;;;19.72;61.38;101756.78;5026283;28;1894;-81
2023/07/17 10:31:32;;;;;;;;;;;;;;;19.73;60.62;101757.63;5025881;28;1285;-80
2023/07/17 10:33:58;;;;;;;;;;;;;;;19.91;60.61;101760.94;5008404;28;1498;-80
2023/07/17 10:36:39;;;;;;;;;;;;;;;20.14;60.41;101769.81;5029790;28;1288;-80
2023/07/17 10:39:07;;;;;;;;;;;;;;;20.40;59.58;101771.44;5017957;28;1346;-81
2023/07/17 10:41:32;;;;;;;;;;;;;;;20.54;59.36;101767.34;5027567;28;1042;-81
2023/07/17 10:43:58;;;;;;;;;;;;;;;20.70;58.79;101756.75;5010509;28;1230;-80
2023/07/17 10:46:31;;;;;;;;;;;;;;;20.83;58.42;101761.50;5021576;28;1310;-80
2023/07/17 10:49:06;;;;;;;;;;;;;;;20.89;58.02;101752.91;5044650;28;1890;-80
2023/07/17 10:51:32;;;;;;;;;;;;;;;20.87;56.37;101757.53;5051555;28;1042;-80
2023/07/17 10:53:57;;;;;;;;;;;;;;;20.89;57.22;101760.84;5041866;28;1487;-80
2023/07/17 10:56:23;;;;;;;;;;;;;;;20.83;57.17;101764.16;5029470;28;1382;-80
2023/07/17 10:58:48;;;;;;;;;;;;;;;20.84;56.55;101763.16;5047970;28;1212;-81
2023/07/17 11:01:15;;;;;;;;;;;;;;;20.76;56.57;101761.38;5045162;28;1492;-80
2023/07/17 11:03:42;;;;;;;;;;;;;;;20.68;55.85;101759.56;5050116;28;1008;-79
2023/07/17 11:06:07;;;;;;;;;;;;;;;20.67;56.69;101757.91;5048749;28;1252;-80
2023/07/17 11:08:33;;;;;;;;;;;;;;;20.80;56.38;101757.38;5041732;28;1957;-79
2023/07/17 11:10:58;;;;;;;;;;;;;;;20.94;55.43;101763.78;5043901;28;1268;-79
2023/07/17 11:13:29;;;;;;;;;;;;;;;21.02;55.31;101761.09;5040284;28;1262;-80
2023/07/17 11:15:54;;;;;;;;;;;;;;;21.09;55.06;101755.97;5029985;28;2016;-81
2023/07/17 11:18:19;;;;;;;;;;;;;;;21.05;53.77;101752.88;5049819;28;1543;-81
2023/07/17 11:20:44;;;;;;;;;;;;;;;21.05;54.25;101755.50;5047372;28;1206;-79
2023/07/17 11:23:10;;;;;;;;;;;;;;;21.03;53.58;101754.81;5032941;28;1295;-80
2023/07/17 11:25:36;;;;;;;;;;;;;;;21.07;53.81;101753.50;5034113;28;1541;-81
2023/07/17 11:28:01;;;;;;;;;;;;;;;21.15;53.78;101750.81;5043001;28;2008;-79
2023/07/17 11:30:32;;;;;;;;;;;;;;;21.23;53.58;101742.06;5046687;28;1163;-81
2023/07/17 11:32:57;;;;;;;;;;;;;;;21.47;53.60;101749.03;5028832;28;1344;-79
2023/07/17 11:35:22;;;;;;;;;;;;;;;21.61;53.72;101756.19;5045062;28;1233;-80
2023/07/17 11:37:47;;;;;;;;;;;;;;;21.81;52.59;101758.41;5042500;28;1245;-80
2023/07/17 11:40:13;;;;;;;;;;;;;;;22.05;52.47;101752.09;5042828;28;1255;-81
2023/07/17 11:42:50;;;;;;;;;;;;;;;22.28;52.35;101752.91;5026834;28;1219;-80
2023/07/17 11:45:16;;;;;;;;;;;;;;;22.50;51.37;101757.31;5043976;28;1088;-80
2023/07/17 11:47:41;;;;;;;;;;;;;;;22.62;52.15;101755.03;5046659;28;1921;-81
2023/07/17 11:50:06;;;;;;;;;;;;;;;22.74;51.70;101748.28;5047394;28;1066;-80
2023/07/17 11:52:31;;;;;;;;;;;;;;;22.92;50.86;101744.47;5046630;28;1252;-81
2023/07/17 11:54:57;;;;;;;;;;;;;;;22.94;50.27;101742.47;5041543;28;1277;-81
2023/07/17 11:57:28;;;;;;;;;;;;;;;22.95;49.68;101750.25;5045308;28;1574;-80
2023/07/17 12:00:07;;;;;;;;;;;;;;;22.91;49.95;101748.13;5046751;28;1499;-79
2023/07/17 12:02:32;;;;;;;;;;;;;;;22.95;49.86;101739.66;5028824;28;1289;-80
2023/07/17 12:05:00;;;;;;;;;;;;;;;23.10;48.40;101746.75;5028969;28;1383;-80
2023/07/17 12:07:26;;;;;;;;;;;;;;;23.14;49.58;101742.72;5053305;28;1897;-80
2023/07/17 12:09:51;;;;;;;;;;;;;;;23.28;49.24;101741.84;5049773;28;1184;-80
2023/07/17 12:12:16;;;;;;;;;;;;;;;23.35;47.77;101734.00;5032613;28;1297;-80
2023/07/17 12:14:42;;;;;;;;;;;;;;;23.30;48.31;101747.81;5027750;28;1383;-80
2023/07/17 12:17:08;;;;;;;;;;;;;;;23.38;47.99;101741.56;5041993;28;1282;-81
2023/07/17 12:19:33;;;;;;;;;;;;;;;23.43;48.26;101736.53;5031098;28;1464;-80
2023/07/17 12:21:58;;;;;;;;;;;;;;;23.39;48.31;101740.56;5045565;28;1984;-80
2023/07/17 12:24:24;;;;;;;;;;;;;;;23.50;48.32;101735.59;5029524;28;1305;-80
2023/07/17 12:26:49;;;;;;;;;;;;;;;23.49;48.23;101741.06;5024819;28;1296;-81
2023/07/17 12:29:15;;;;;;;;;;;;;;;23.40;47.67;101742.19;5051105;28;1968;-81
2023/07/17 12:31:40;;;;;;;;;;;;;;;23.17;47.95;101743.19;5038204;28;1614;-81
2023/07/17 12:34:07;;;;;;;;;;;;;;;23.16;47.47;101738.88;5046217;28;1518;-79
2023/07/17 12:36:32;;;;;;;;;;;;;;;23.00;47.62;101747.06;5046838;28;1592;-80
2023/07/17 12:39:10;;;;;;;;;;;;;;;22.82;48.29;101751.84;5047217;28;1648;-80
2023/07/17 12:41:35;;;;;;;;;;;;;;;22.68;48.36;101754.31;5045667;28;1211;-79
2023/07/17 12:44:01;;;;;;;;;;;;;;;22.47;48.80;101756.84;5046994;28;1231;-77